sensor_id;sensor_type;location;lat;lon;timestamp;P1;durP1;ratioP1;P2;durP2;ratioP2
64018;SDS011;66942;52.138;5.216;2023-07-08T00:00:14;4.5;;;4.1;;
64018;SDS011;66942;52.138;5.216;2023-07-08T00:01:53;4.0;;;3.7;;
64018;SDS011;66942;52.138;5.216;2023-07-08T00:03:29;4.3;;;4.0;;
64018;SDS011;66942;52.138;5.216;2023-07-08T00:06:44;3.7;;;3.4;;
64018;SDS011;66942;52.138;5.216;2023-07-08T00:08:20;3.9;;;3.6;;
64018;SDS011;66942;52.138;5.216;2023-07-08T00:09:57;4.3;;;4.0;;
64018;SDS011;66942;52.138;5.216;2023-07-08T00:11:33;4.1;;;3.8;;
64018;SDS011;66942;52.138;5.216;2023-07-08T00:14:46;4.2;;;3.9;;
64018;SDS011;66942;52.138;5.216;2023-07-08T00:16:23;4.1;;;3.8;;
64018;SDS011;66942;52.138;5.216;2023-07-08T00:18:00;4.3;;;4.0;;
64018;SDS011;66942;52.138;5.216;2023-07-08T00:21:14;4.0;;;3.6;;
64018;SDS011;66942;52.138;5.216;2023-07-08T00:22:52;4.0;;;3.8;;
64018;SDS011;66942;52.138;5.216;2023-07-08T00:24:28;4.3;;;4.1;;
64018;SDS011;66942;52.138;5.216;2023-07-08T00:27:46;4.3;;;3.9;;
64018;SDS011;66942;52.138;5.216;2023-07-08T00:29:23;3.8;;;3.5;;
64018;SDS011;66942;52.138;5.216;2023-07-08T00:31:00;4.0;;;3.7;;
64018;SDS011;66942;52.138;5.216;2023-07-08T00:32:36;4.2;;;3.9;;
64018;SDS011;66942;52.138;5.216;2023-07-08T00:35:48;4.41;;;4.1;;
64018;SDS011;66942;52.138;5.216;2023-07-08T00:37:24;4.61;;;4.0;;
64018;SDS011;66942;52.138;5.216;2023-07-08T00:39:00;3.9;;;3.7;;
64018;SDS011;66942;52.138;5.216;2023-07-08T00:42:14;4.1;;;3.9;;
64018;SDS011;66942;52.138;5.216;2023-07-08T00:44:01;4.0;;;3.8;;
64018;SDS011;66942;52.138;5.216;2023-07-08T00:45:38;4.1;;;3.7;;
64018;SDS011;66942;52.138;5.216;2023-07-08T00:47:21;3.9;;;3.6;;
64018;SDS011;66942;52.138;5.216;2023-07-08T00:50:47;3.9;;;3.6;;
64018;SDS011;66942;52.138;5.216;2023-07-08T00:52:24;3.7;;;3.5;;
64018;SDS011;66942;52.138;5.216;2023-07-08T00:54:02;4.0;;;3.8;;
64018;SDS011;66942;52.138;5.216;2023-07-08T00:55:39;3.9;;;3.6;;
64018;SDS011;66942;52.138;5.216;2023-07-08T00:58:53;3.9;;;3.7;;
64018;SDS011;66942;52.138;5.216;2023-07-08T01:00:39;4.0;;;3.6;;
64018;SDS011;66942;52.138;5.216;2023-07-08T01:02:15;3.7;;;3.5;;
64018;SDS011;66942;52.138;5.216;2023-07-08T01:03:57;4.2;;;3.9;;
64018;SDS011;66942;52.138;5.216;2023-07-08T01:07:15;4.3;;;3.8;;
64018;SDS011;66942;52.138;5.216;2023-07-08T01:08:55;5.5;;;3.9;;
64018;SDS011;66942;52.138;5.216;2023-07-08T01:10:35;6.3;;;4.0;;
64018;SDS011;66942;52.138;5.216;2023-07-08T01:12:16;3.7;;;3.5;;
64018;SDS011;66942;52.138;5.216;2023-07-08T01:15:37;4.0;;;3.7;;
64018;SDS011;66942;52.138;5.216;2023-07-08T01:17:18;4.3;;;3.9;;
64018;SDS011;66942;52.138;5.216;2023-07-08T01:18:54;4.2;;;3.9;;
64018;SDS011;66942;52.138;5.216;2023-07-08T01:22:08;3.7;;;3.5;;
64018;SDS011;66942;52.138;5.216;2023-07-08T01:23:45;4.7;;;3.6;;
64018;SDS011;66942;52.138;5.216;2023-07-08T01:25:21;4.2;;;3.9;;
64018;SDS011;66942;52.138;5.216;2023-07-08T01:26:57;4.2;;;3.9;;
64018;SDS011;66942;52.138;5.216;2023-07-08T01:30:11;4.5;;;4.0;;
64018;SDS011;66942;52.138;5.216;2023-07-08T01:31:49;3.9;;;3.6;;
64018;SDS011;66942;52.138;5.216;2023-07-08T01:33:25;4.0;;;3.7;;
64018;SDS011;66942;52.138;5.216;2023-07-08T01:36:40;4.3;;;4.0;;
64018;SDS011;66942;52.138;5.216;2023-07-08T01:38:22;4.3;;;4.0;;
64018;SDS011;66942;52.138;5.216;2023-07-08T01:40:34;4.1;;;3.8;;
64018;SDS011;66942;52.138;5.216;2023-07-08T01:42:13;4.3;;;4.0;;
64018;SDS011;66942;52.138;5.216;2023-07-08T01:43:49;3.7;;;3.5;;
64018;SDS011;66942;52.138;5.216;2023-07-08T01:47:04;4.1;;;3.8;;
64018;SDS011;66942;52.138;5.216;2023-07-08T01:48:48;3.9;;;3.6;;
64018;SDS011;66942;52.138;5.216;2023-07-08T01:50:28;4.1;;;3.9;;
64018;SDS011;66942;52.138;5.216;2023-07-08T01:52:06;3.9;;;3.6;;
64018;SDS011;66942;52.138;5.216;2023-07-08T01:55:21;4.41;;;4.1;;
64018;SDS011;66942;52.138;5.216;2023-07-08T01:56:58;4.5;;;4.2;;
64018;SDS011;66942;52.138;5.216;2023-07-08T01:58:34;4.0;;;3.8;;
64018;SDS011;66942;52.138;5.216;2023-07-08T02:01:49;4.1;;;3.8;;
64018;SDS011;66942;52.138;5.216;2023-07-08T02:03:26;3.6;;;3.4;;
64018;SDS011;66942;52.138;5.216;2023-07-08T02:05:03;4.41;;;4.0;;
64018;SDS011;66942;52.138;5.216;2023-07-08T02:06:40;3.7;;;3.5;;
64018;SDS011;66942;52.138;5.216;2023-07-08T02:09:53;4.2;;;4.0;;
64018;SDS011;66942;52.138;5.216;2023-07-08T02:11:29;4.41;;;4.0;;
64018;SDS011;66942;52.138;5.216;2023-07-08T02:13:06;4.1;;;3.9;;
64018;SDS011;66942;52.138;5.216;2023-07-08T02:16:18;4.5;;;4.2;;
64018;SDS011;66942;52.138;5.216;2023-07-08T02:17:54;4.1;;;3.9;;
64018;SDS011;66942;52.138;5.216;2023-07-08T02:19:31;4.8;;;4.5;;
64018;SDS011;66942;52.138;5.216;2023-07-08T02:22:43;4.41;;;4.0;;
64018;SDS011;66942;52.138;5.216;2023-07-08T02:24:19;3.9;;;3.7;;
64018;SDS011;66942;52.138;5.216;2023-07-08T02:25:55;4.41;;;4.0;;
64018;SDS011;66942;52.138;5.216;2023-07-08T02:27:31;4.2;;;3.9;;
64018;SDS011;66942;52.138;5.216;2023-07-08T02:30:43;4.2;;;3.9;;
64018;SDS011;66942;52.138;5.216;2023-07-08T02:32:19;3.9;;;3.7;;
64018;SDS011;66942;52.138;5.216;2023-07-08T02:33:55;4.3;;;3.9;;
64018;SDS011;66942;52.138;5.216;2023-07-08T02:37:08;4.1;;;3.9;;
64018;SDS011;66942;52.138;5.216;2023-07-08T02:38:44;4.0;;;3.8;;
64018;SDS011;66942;52.138;5.216;2023-07-08T02:40:20;4.1;;;3.9;;
64018;SDS011;66942;52.138;5.216;2023-07-08T02:43:33;4.1;;;3.8;;
64018;SDS011;66942;52.138;5.216;2023-07-08T02:45:10;4.2;;;3.9;;
64018;SDS011;66942;52.138;5.216;2023-07-08T02:46:49;4.7;;;4.41;;
64018;SDS011;66942;52.138;5.216;2023-07-08T02:48:25;4.5;;;4.2;;
64018;SDS011;66942;52.138;5.216;2023-07-08T02:51:37;4.0;;;3.8;;
64018;SDS011;66942;52.138;5.216;2023-07-08T02:53:13;4.0;;;3.8;;
64018;SDS011;66942;52.138;5.216;2023-07-08T02:54:49;3.9;;;3.6;;
64018;SDS011;66942;52.138;5.216;2023-07-08T02:58:01;4.0;;;3.7;;
64018;SDS011;66942;52.138;5.216;2023-07-08T02:59:37;3.9;;;3.7;;
64018;SDS011;66942;52.138;5.216;2023-07-08T03:01:14;4.0;;;3.7;;
64018;SDS011;66942;52.138;5.216;2023-07-08T03:04:27;3.7;;;3.4;;
64018;SDS011;66942;52.138;5.216;2023-07-08T03:06:03;4.41;;;4.0;;
64018;SDS011;66942;52.138;5.216;2023-07-08T03:07:40;4.8;;;4.1;;
64018;SDS011;66942;52.138;5.216;2023-07-08T03:10:54;4.0;;;3.7;;
64018;SDS011;66942;52.138;5.216;2023-07-08T03:12:33;5.11;;;4.61;;
64018;SDS011;66942;52.138;5.216;2023-07-08T03:14:09;4.2;;;3.8;;
64018;SDS011;66942;52.138;5.216;2023-07-08T03:15:45;4.7;;;4.41;;
64018;SDS011;66942;52.138;5.216;2023-07-08T03:18:57;3.8;;;3.6;;
64018;SDS011;66942;52.138;5.216;2023-07-08T03:20:33;4.2;;;3.9;;
64018;SDS011;66942;52.138;5.216;2023-07-08T03:22:10;4.2;;;3.9;;
64018;SDS011;66942;52.138;5.216;2023-07-08T03:25:24;3.8;;;3.5;;
64018;SDS011;66942;52.138;5.216;2023-07-08T03:27:00;3.8;;;3.6;;
64018;SDS011;66942;52.138;5.216;2023-07-08T03:28:36;3.9;;;3.7;;
64018;SDS011;66942;52.138;5.216;2023-07-08T03:31:48;6.1;;;4.3;;
64018;SDS011;66942;52.138;5.216;2023-07-08T03:33:24;4.1;;;3.8;;
64018;SDS011;66942;52.138;5.216;2023-07-08T03:35:01;4.0;;;3.8;;
64018;SDS011;66942;52.138;5.216;2023-07-08T03:36:37;4.2;;;3.9;;
64018;SDS011;66942;52.138;5.216;2023-07-08T03:39:54;4.2;;;3.9;;
64018;SDS011;66942;52.138;5.216;2023-07-08T03:41:30;4.2;;;3.9;;
64018;SDS011;66942;52.138;5.216;2023-07-08T03:43:06;3.9;;;3.7;;
64018;SDS011;66942;52.138;5.216;2023-07-08T03:46:19;3.9;;;3.6;;
64018;SDS011;66942;52.138;5.216;2023-07-08T03:47:57;4.1;;;3.8;;
64018;SDS011;66942;52.138;5.216;2023-07-08T03:49:33;4.2;;;3.9;;
64018;SDS011;66942;52.138;5.216;2023-07-08T03:52:57;4.3;;;4.0;;
64018;SDS011;66942;52.138;5.216;2023-07-08T03:54:33;4.41;;;4.0;;
64018;SDS011;66942;52.138;5.216;2023-07-08T03:56:10;4.0;;;3.7;;
64018;SDS011;66942;52.138;5.216;2023-07-08T03:57:48;4.0;;;3.7;;
64018;SDS011;66942;52.138;5.216;2023-07-08T04:01:00;4.2;;;3.9;;
64018;SDS011;66942;52.138;5.216;2023-07-08T04:02:36;3.9;;;3.6;;
64018;SDS011;66942;52.138;5.216;2023-07-08T04:04:13;3.8;;;3.6;;
64018;SDS011;66942;52.138;5.216;2023-07-08T04:05:50;4.0;;;3.8;;
64018;SDS011;66942;52.138;5.216;2023-07-08T04:09:03;4.0;;;3.7;;
64018;SDS011;66942;52.138;5.216;2023-07-08T04:10:40;4.0;;;3.7;;
64018;SDS011;66942;52.138;5.216;2023-07-08T04:12:16;4.3;;;4.0;;
64018;SDS011;66942;52.138;5.216;2023-07-08T04:15:30;3.9;;;3.7;;
64018;SDS011;66942;52.138;5.216;2023-07-08T04:17:06;4.7;;;4.3;;
64018;SDS011;66942;52.138;5.216;2023-07-08T04:18:42;4.1;;;3.8;;
64018;SDS011;66942;52.138;5.216;2023-07-08T04:21:55;4.1;;;3.9;;
64018;SDS011;66942;52.138;5.216;2023-07-08T04:23:31;3.8;;;3.6;;
64018;SDS011;66942;52.138;5.216;2023-07-08T04:25:07;3.8;;;3.6;;
64018;SDS011;66942;52.138;5.216;2023-07-08T04:28:23;4.1;;;3.8;;
64018;SDS011;66942;52.138;5.216;2023-07-08T04:29:59;4.61;;;4.3;;
64018;SDS011;66942;52.138;5.216;2023-07-08T04:31:35;4.2;;;3.9;;
64018;SDS011;66942;52.138;5.216;2023-07-08T04:33:12;4.1;;;3.8;;
64018;SDS011;66942;52.138;5.216;2023-07-08T04:36:26;4.3;;;3.9;;
64018;SDS011;66942;52.138;5.216;2023-07-08T04:38:02;4.1;;;3.8;;
64018;SDS011;66942;52.138;5.216;2023-07-08T04:39:38;3.9;;;3.6;;
64018;SDS011;66942;52.138;5.216;2023-07-08T04:42:50;4.1;;;3.7;;
64018;SDS011;66942;52.138;5.216;2023-07-08T04:44:26;4.1;;;3.8;;
64018;SDS011;66942;52.138;5.216;2023-07-08T04:46:03;3.8;;;3.6;;
64018;SDS011;66942;52.138;5.216;2023-07-08T04:47:58;4.3;;;4.0;;
64018;SDS011;66942;52.138;5.216;2023-07-08T04:51:11;3.8;;;3.5;;
64018;SDS011;66942;52.138;5.216;2023-07-08T04:52:47;4.1;;;3.8;;
64018;SDS011;66942;52.138;5.216;2023-07-08T04:54:23;3.9;;;3.7;;
64018;SDS011;66942;52.138;5.216;2023-07-08T04:57:36;3.8;;;3.5;;
64018;SDS011;66942;52.138;5.216;2023-07-08T04:59:12;3.8;;;3.5;;
64018;SDS011;66942;52.138;5.216;2023-07-08T05:00:51;4.0;;;3.7;;
64018;SDS011;66942;52.138;5.216;2023-07-08T05:02:27;4.5;;;4.2;;
64018;SDS011;66942;52.138;5.216;2023-07-08T05:05:41;3.4;;;3.2;;
64018;SDS011;66942;52.138;5.216;2023-07-08T05:07:17;3.9;;;3.7;;
64018;SDS011;66942;52.138;5.216;2023-07-08T05:08:54;3.6;;;3.4;;
64018;SDS011;66942;52.138;5.216;2023-07-08T05:12:06;4.3;;;4.1;;
64018;SDS011;66942;52.138;5.216;2023-07-08T05:13:43;3.9;;;3.7;;
64018;SDS011;66942;52.138;5.216;2023-07-08T05:15:19;4.5;;;4.2;;
64018;SDS011;66942;52.138;5.216;2023-07-08T05:18:32;3.9;;;3.6;;
64018;SDS011;66942;52.138;5.216;2023-07-08T05:20:10;3.8;;;3.5;;
64018;SDS011;66942;52.138;5.216;2023-07-08T05:21:49;3.6;;;3.4;;
64018;SDS011;66942;52.138;5.216;2023-07-08T05:23:25;3.2;;;3.0;;
64018;SDS011;66942;52.138;5.216;2023-07-08T05:26:38;3.6;;;3.4;;
64018;SDS011;66942;52.138;5.216;2023-07-08T05:28:14;4.5;;;4.1;;
64018;SDS011;66942;52.138;5.216;2023-07-08T05:29:50;4.1;;;3.8;;
64018;SDS011;66942;52.138;5.216;2023-07-08T05:33:03;4.3;;;4.0;;
64018;SDS011;66942;52.138;5.216;2023-07-08T05:34:39;3.6;;;3.4;;
64018;SDS011;66942;52.138;5.216;2023-07-08T05:36:15;4.1;;;3.3;;
64018;SDS011;66942;52.138;5.216;2023-07-08T05:39:27;4.3;;;3.6;;
64018;SDS011;66942;52.138;5.216;2023-07-08T05:41:05;3.6;;;3.4;;
64018;SDS011;66942;52.138;5.216;2023-07-08T05:42:42;3.5;;;3.3;;
64018;SDS011;66942;52.138;5.216;2023-07-08T05:44:18;3.7;;;3.4;;
64018;SDS011;66942;52.138;5.216;2023-07-08T05:47:34;3.8;;;3.5;;
64018;SDS011;66942;52.138;5.216;2023-07-08T05:49:10;3.7;;;3.4;;
64018;SDS011;66942;52.138;5.216;2023-07-08T05:50:46;3.4;;;3.1;;
64018;SDS011;66942;52.138;5.216;2023-07-08T05:53:58;3.2;;;3.0;;
64018;SDS011;66942;52.138;5.216;2023-07-08T05:55:34;3.2;;;2.9;;
64018;SDS011;66942;52.138;5.216;2023-07-08T05:57:11;3.6;;;3.1;;
64018;SDS011;66942;52.138;5.216;2023-07-08T05:58:49;3.1;;;2.9;;
64018;SDS011;66942;52.138;5.216;2023-07-08T06:02:01;3.4;;;3.2;;
64018;SDS011;66942;52.138;5.216;2023-07-08T06:03:38;3.4;;;3.1;;
64018;SDS011;66942;52.138;5.216;2023-07-08T06:05:14;3.1;;;2.9;;
64018;SDS011;66942;52.138;5.216;2023-07-08T06:08:27;3.2;;;2.8;;
64018;SDS011;66942;52.138;5.216;2023-07-08T06:10:03;3.5;;;3.2;;
64018;SDS011;66942;52.138;5.216;2023-07-08T06:11:40;3.4;;;2.7;;
64018;SDS011;66942;52.138;5.216;2023-07-08T06:14:52;2.9;;;2.7;;
64018;SDS011;66942;52.138;5.216;2023-07-08T06:16:28;2.7;;;2.5;;
64018;SDS011;66942;52.138;5.216;2023-07-08T06:18:04;3.6;;;3.3;;
64018;SDS011;66942;52.138;5.216;2023-07-08T06:21:17;3.3;;;3.0;;
64018;SDS011;66942;52.138;5.216;2023-07-08T06:22:53;3.3;;;3.0;;
64018;SDS011;66942;52.138;5.216;2023-07-08T06:24:29;3.2;;;2.9;;
64018;SDS011;66942;52.138;5.216;2023-07-08T06:26:05;3.3;;;3.0;;
64018;SDS011;66942;52.138;5.216;2023-07-08T06:29:17;3.5;;;3.2;;
64018;SDS011;66942;52.138;5.216;2023-07-08T06:30:53;2.9;;;2.7;;
64018;SDS011;66942;52.138;5.216;2023-07-08T06:32:30;3.4;;;3.1;;
64018;SDS011;66942;52.138;5.216;2023-07-08T06:35:42;3.2;;;2.8;;
64018;SDS011;66942;52.138;5.216;2023-07-08T06:37:19;2.5;;;2.4;;
64018;SDS011;66942;52.138;5.216;2023-07-08T06:38:55;3.4;;;3.1;;
64018;SDS011;66942;52.138;5.216;2023-07-08T06:42:07;3.2;;;2.9;;
64018;SDS011;66942;52.138;5.216;2023-07-08T06:43:44;3.1;;;2.9;;
64018;SDS011;66942;52.138;5.216;2023-07-08T06:45:20;3.4;;;3.2;;
64018;SDS011;66942;52.138;5.216;2023-07-08T06:46:56;2.9;;;2.7;;
64018;SDS011;66942;52.138;5.216;2023-07-08T06:50:08;2.8;;;2.6;;
64018;SDS011;66942;52.138;5.216;2023-07-08T06:51:45;3.2;;;3.0;;
64018;SDS011;66942;52.138;5.216;2023-07-08T06:53:21;3.1;;;2.9;;
64018;SDS011;66942;52.138;5.216;2023-07-08T06:56:34;3.2;;;2.9;;
64018;SDS011;66942;52.138;5.216;2023-07-08T06:58:10;2.9;;;2.6;;
64018;SDS011;66942;52.138;5.216;2023-07-08T06:59:46;2.8;;;2.4;;
64018;SDS011;66942;52.138;5.216;2023-07-08T07:02:58;3.0;;;2.5;;
64018;SDS011;66942;52.138;5.216;2023-07-08T07:04:34;2.8;;;2.6;;
64018;SDS011;66942;52.138;5.216;2023-07-08T07:06:10;3.0;;;2.8;;
64018;SDS011;66942;52.138;5.216;2023-07-08T07:09:23;3.8;;;3.3;;
64018;SDS011;66942;52.138;5.216;2023-07-08T07:10:59;3.2;;;2.9;;
64018;SDS011;66942;52.138;5.216;2023-07-08T07:12:35;2.9;;;2.7;;
64018;SDS011;66942;52.138;5.216;2023-07-08T07:14:11;3.1;;;2.8;;
64018;SDS011;66942;52.138;5.216;2023-07-08T07:17:24;3.2;;;2.9;;
64018;SDS011;66942;52.138;5.216;2023-07-08T07:19:01;3.0;;;2.8;;
64018;SDS011;66942;52.138;5.216;2023-07-08T07:20:38;3.6;;;3.1;;
64018;SDS011;66942;52.138;5.216;2023-07-08T07:23:59;2.9;;;2.7;;
64018;SDS011;66942;52.138;5.216;2023-07-08T07:25:35;4.7;;;3.4;;
64018;SDS011;66942;52.138;5.216;2023-07-08T07:27:11;3.4;;;3.1;;
64018;SDS011;66942;52.138;5.216;2023-07-08T07:28:47;3.3;;;3.1;;
64018;SDS011;66942;52.138;5.216;2023-07-08T07:32:00;3.3;;;3.1;;
64018;SDS011;66942;52.138;5.216;2023-07-08T07:33:36;3.5;;;3.2;;
64018;SDS011;66942;52.138;5.216;2023-07-08T07:35:13;3.4;;;3.2;;
64018;SDS011;66942;52.138;5.216;2023-07-08T07:38:26;2.9;;;2.7;;
64018;SDS011;66942;52.138;5.216;2023-07-08T07:40:02;3.2;;;3.0;;
64018;SDS011;66942;52.138;5.216;2023-07-08T07:41:39;3.6;;;3.3;;
64018;SDS011;66942;52.138;5.216;2023-07-08T07:44:52;3.4;;;3.1;;
64018;SDS011;66942;52.138;5.216;2023-07-08T07:46:28;3.4;;;3.1;;
64018;SDS011;66942;52.138;5.216;2023-07-08T07:48:04;4.7;;;3.3;;
64018;SDS011;66942;52.138;5.216;2023-07-08T07:49:40;3.8;;;3.6;;
64018;SDS011;66942;52.138;5.216;2023-07-08T07:52:52;4.0;;;3.2;;
64018;SDS011;66942;52.138;5.216;2023-07-08T07:54:28;3.2;;;3.0;;
64018;SDS011;66942;52.138;5.216;2023-07-08T07:56:05;3.3;;;3.0;;
64018;SDS011;66942;52.138;5.216;2023-07-08T07:59:18;3.3;;;3.0;;
64018;SDS011;66942;52.138;5.216;2023-07-08T08:00:55;3.6;;;3.3;;
64018;SDS011;66942;52.138;5.216;2023-07-08T08:02:31;3.2;;;3.0;;
64018;SDS011;66942;52.138;5.216;2023-07-08T08:05:45;3.2;;;2.9;;
64018;SDS011;66942;52.138;5.216;2023-07-08T08:07:22;4.91;;;2.9;;
64018;SDS011;66942;52.138;5.216;2023-07-08T08:08:58;3.0;;;2.8;;
64018;SDS011;66942;52.138;5.216;2023-07-08T08:12:12;4.0;;;3.2;;
64018;SDS011;66942;52.138;5.216;2023-07-08T08:13:48;3.1;;;2.9;;
64018;SDS011;66942;52.138;5.216;2023-07-08T08:15:24;3.1;;;2.9;;
64018;SDS011;66942;52.138;5.216;2023-07-08T08:17:00;3.4;;;3.2;;
64018;SDS011;66942;52.138;5.216;2023-07-08T08:20:13;3.6;;;3.3;;
64018;SDS011;66942;52.138;5.216;2023-07-08T08:21:49;3.0;;;2.8;;
64018;SDS011;66942;52.138;5.216;2023-07-08T08:23:25;4.41;;;3.3;;
64018;SDS011;66942;52.138;5.216;2023-07-08T08:26:37;3.2;;;3.0;;
64018;SDS011;66942;52.138;5.216;2023-07-08T08:28:13;3.8;;;3.5;;
64018;SDS011;66942;52.138;5.216;2023-07-08T08:29:49;3.6;;;3.3;;
64018;SDS011;66942;52.138;5.216;2023-07-08T08:33:02;3.6;;;3.3;;
64018;SDS011;66942;52.138;5.216;2023-07-08T08:34:38;3.5;;;3.2;;
64018;SDS011;66942;52.138;5.216;2023-07-08T08:36:14;3.4;;;3.1;;
64018;SDS011;66942;52.138;5.216;2023-07-08T08:37:50;3.6;;;3.3;;
64018;SDS011;66942;52.138;5.216;2023-07-08T08:41:04;3.9;;;3.2;;
64018;SDS011;66942;52.138;5.216;2023-07-08T08:42:46;3.6;;;3.4;;
64018;SDS011;66942;52.138;5.216;2023-07-08T08:44:31;3.6;;;3.3;;
64018;SDS011;66942;52.138;5.216;2023-07-08T08:46:12;3.8;;;3.5;;
64018;SDS011;66942;52.138;5.216;2023-07-08T08:49:50;3.9;;;3.6;;
64018;SDS011;66942;52.138;5.216;2023-07-08T08:51:32;4.61;;;3.8;;
64018;SDS011;66942;52.138;5.216;2023-07-08T08:53:10;4.0;;;3.8;;
64018;SDS011;66942;52.138;5.216;2023-07-08T08:54:48;4.1;;;3.8;;
64018;SDS011;66942;52.138;5.216;2023-07-08T08:58:09;4.1;;;3.8;;
64018;SDS011;66942;52.138;5.216;2023-07-08T08:59:59;3.8;;;3.5;;
64018;SDS011;66942;52.138;5.216;2023-07-08T09:01:36;4.3;;;4.0;;
64018;SDS011;66942;52.138;5.216;2023-07-08T09:03:14;4.41;;;4.0;;
64018;SDS011;66942;52.138;5.216;2023-07-08T09:06:39;4.2;;;3.9;;
64018;SDS011;66942;52.138;5.216;2023-07-08T09:08:18;4.61;;;4.2;;
64018;SDS011;66942;52.138;5.216;2023-07-08T09:10:04;4.7;;;4.3;;
64018;SDS011;66942;52.138;5.216;2023-07-08T09:11:51;4.0;;;3.8;;
64018;SDS011;66942;52.138;5.216;2023-07-08T09:13:34;4.7;;;4.41;;
64018;SDS011;66942;52.138;5.216;2023-07-08T09:16:52;4.5;;;4.1;;
64018;SDS011;66942;52.138;5.216;2023-07-08T09:18:41;4.1;;;3.8;;
64018;SDS011;66942;52.138;5.216;2023-07-08T09:20:31;5.0;;;4.61;;
64018;SDS011;66942;52.138;5.216;2023-07-08T09:22:11;4.8;;;4.5;;
64018;SDS011;66942;52.138;5.216;2023-07-08T09:23:54;4.91;;;4.5;;
64018;SDS011;66942;52.138;5.216;2023-07-08T09:27:19;4.41;;;4.1;;
64018;SDS011;66942;52.138;5.216;2023-07-08T09:28:55;4.5;;;4.2;;
64018;SDS011;66942;52.138;5.216;2023-07-08T09:30:31;4.2;;;4.0;;
64018;SDS011;66942;52.138;5.216;2023-07-08T09:34:04;4.91;;;4.61;;
64018;SDS011;66942;52.138;5.216;2023-07-08T09:35:43;4.7;;;4.41;;
64018;SDS011;66942;52.138;5.216;2023-07-08T09:37:23;4.7;;;4.41;;
64018;SDS011;66942;52.138;5.216;2023-07-08T09:39:02;4.7;;;4.3;;
64018;SDS011;66942;52.138;5.216;2023-07-08T09:40:38;4.8;;;4.41;;
64018;SDS011;66942;52.138;5.216;2023-07-08T09:43:53;5.11;;;4.61;;
64018;SDS011;66942;52.138;5.216;2023-07-08T09:45:41;4.61;;;4.41;;
64018;SDS011;66942;52.138;5.216;2023-07-08T09:47:23;4.8;;;4.5;;
64018;SDS011;66942;52.138;5.216;2023-07-08T09:49:05;5.0;;;4.5;;
64018;SDS011;66942;52.138;5.216;2023-07-08T09:52:29;4.91;;;4.61;;
64018;SDS011;66942;52.138;5.216;2023-07-08T09:54:07;4.91;;;4.5;;
64018;SDS011;66942;52.138;5.216;2023-07-08T09:55:43;6.0;;;5.5;;
64018;SDS011;66942;52.138;5.216;2023-07-08T09:57:23;5.4;;;5.0;;
64018;SDS011;66942;52.138;5.216;2023-07-08T10:00:41;5.4;;;5.0;;
64018;SDS011;66942;52.138;5.216;2023-07-08T10:02:24;5.3;;;4.91;;
64018;SDS011;66942;52.138;5.216;2023-07-08T10:04:05;5.9;;;5.5;;
64018;SDS011;66942;52.138;5.216;2023-07-08T10:05:42;5.5;;;5.2;;
64018;SDS011;66942;52.138;5.216;2023-07-08T10:09:00;6.3;;;5.9;;
64018;SDS011;66942;52.138;5.216;2023-07-08T10:10:39;5.9;;;5.5;;
64018;SDS011;66942;52.138;5.216;2023-07-08T10:12:17;5.9;;;5.5;;
64018;SDS011;66942;52.138;5.216;2023-07-08T10:15:37;6.3;;;5.9;;
64018;SDS011;66942;52.138;5.216;2023-07-08T10:17:18;6.0;;;5.6;;
64018;SDS011;66942;52.138;5.216;2023-07-08T10:18:56;5.6;;;5.11;;
64018;SDS011;66942;52.138;5.216;2023-07-08T10:20:37;6.7;;;6.2;;
64018;SDS011;66942;52.138;5.216;2023-07-08T10:24:17;5.9;;;5.4;;
64018;SDS011;66942;52.138;5.216;2023-07-08T10:26:07;6.3;;;5.9;;
64018;SDS011;66942;52.138;5.216;2023-07-08T10:27:56;5.7;;;5.4;;
64018;SDS011;66942;52.138;5.216;2023-07-08T10:29:43;5.8;;;5.4;;
64018;SDS011;66942;52.138;5.216;2023-07-08T10:31:30;6.0;;;5.6;;
64018;SDS011;66942;52.138;5.216;2023-07-08T10:33:21;6.5;;;6.0;;
64018;SDS011;66942;52.138;5.216;2023-07-08T10:35:21;6.4;;;6.0;;
64018;SDS011;66942;52.138;5.216;2023-07-08T10:37:04;6.6;;;6.1;;
64018;SDS011;66942;52.138;5.216;2023-07-08T10:40:58;6.6;;;6.2;;
64018;SDS011;66942;52.138;5.216;2023-07-08T10:42:46;6.2;;;5.8;;
64018;SDS011;66942;52.138;5.216;2023-07-08T10:44:40;6.5;;;6.1;;
64018;SDS011;66942;52.138;5.216;2023-07-08T10:46:31;6.9;;;6.5;;
64018;SDS011;66942;52.138;5.216;2023-07-08T10:48:22;6.8;;;6.3;;
64018;SDS011;66942;52.138;5.216;2023-07-08T10:50:26;6.5;;;6.1;;
64018;SDS011;66942;52.138;5.216;2023-07-08T10:52:22;7.1;;;6.7;;
64018;SDS011;66942;52.138;5.216;2023-07-08T10:54:44;7.0;;;6.4;;
64018;SDS011;66942;52.138;5.216;2023-07-08T10:56:35;6.7;;;6.3;;
64018;SDS011;66942;52.138;5.216;2023-07-08T10:58:21;6.5;;;6.0;;
64018;SDS011;66942;52.138;5.216;2023-07-08T11:00:16;6.7;;;6.3;;
64018;SDS011;66942;52.138;5.216;2023-07-08T11:04:59;6.9;;;6.4;;
64018;SDS011;66942;52.138;5.216;2023-07-08T11:06:49;6.5;;;6.1;;
64018;SDS011;66942;52.138;5.216;2023-07-08T11:08:31;6.3;;;5.9;;
64018;SDS011;66942;52.138;5.216;2023-07-08T11:12:01;6.1;;;5.7;;
64018;SDS011;66942;52.138;5.216;2023-07-08T11:13:47;5.9;;;5.6;;
64018;SDS011;66942;52.138;5.216;2023-07-08T11:15:31;6.8;;;6.4;;
64018;SDS011;66942;52.138;5.216;2023-07-08T11:17:16;6.4;;;5.9;;
64018;SDS011;66942;52.138;5.216;2023-07-08T11:19:00;7.1;;;6.6;;
64018;SDS011;66942;52.138;5.216;2023-07-08T11:22:26;6.8;;;6.3;;
64018;SDS011;66942;52.138;5.216;2023-07-08T11:24:10;6.8;;;6.3;;
64018;SDS011;66942;52.138;5.216;2023-07-08T11:26:05;6.5;;;6.0;;
64018;SDS011;66942;52.138;5.216;2023-07-08T11:27:51;6.4;;;5.9;;
64018;SDS011;66942;52.138;5.216;2023-07-08T11:29:34;6.1;;;5.7;;
64018;SDS011;66942;52.138;5.216;2023-07-08T11:33:00;6.6;;;6.2;;
64018;SDS011;66942;52.138;5.216;2023-07-08T11:34:41;7.0;;;6.5;;
64018;SDS011;66942;52.138;5.216;2023-07-08T11:36:19;6.4;;;6.0;;
64018;SDS011;66942;52.138;5.216;2023-07-08T11:37:59;6.9;;;6.5;;
64018;SDS011;66942;52.138;5.216;2023-07-08T11:41:19;6.8;;;6.3;;
64018;SDS011;66942;52.138;5.216;2023-07-08T11:43:00;6.6;;;6.1;;
64018;SDS011;66942;52.138;5.216;2023-07-08T11:44:41;7.1;;;6.4;;
64018;SDS011;66942;52.138;5.216;2023-07-08T11:46:19;6.7;;;6.3;;
64018;SDS011;66942;52.138;5.216;2023-07-08T11:49:42;6.2;;;5.8;;
64018;SDS011;66942;52.138;5.216;2023-07-08T11:51:18;6.7;;;6.3;;
64018;SDS011;66942;52.138;5.216;2023-07-08T11:52:59;6.3;;;5.8;;
64018;SDS011;66942;52.138;5.216;2023-07-08T11:54:38;6.2;;;5.9;;
64018;SDS011;66942;52.138;5.216;2023-07-08T11:58:00;7.8;;;7.2;;
64018;SDS011;66942;52.138;5.216;2023-07-08T11:59:38;6.9;;;6.4;;
64018;SDS011;66942;52.138;5.216;2023-07-08T12:01:19;7.3;;;6.8;;
64018;SDS011;66942;52.138;5.216;2023-07-08T12:03:04;6.8;;;6.3;;
64018;SDS011;66942;52.138;5.216;2023-07-08T12:04:57;6.5;;;6.0;;
64018;SDS011;66942;52.138;5.216;2023-07-08T12:08:23;6.7;;;6.3;;
64018;SDS011;66942;52.138;5.216;2023-07-08T12:10:11;6.4;;;5.8;;
64018;SDS011;66942;52.138;5.216;2023-07-08T12:11:53;6.8;;;6.2;;
64018;SDS011;66942;52.138;5.216;2023-07-08T12:13:38;7.2;;;6.6;;
64018;SDS011;66942;52.138;5.216;2023-07-08T12:16:57;7.1;;;6.6;;
64018;SDS011;66942;52.138;5.216;2023-07-08T12:18:34;6.8;;;6.3;;
64018;SDS011;66942;52.138;5.216;2023-07-08T12:20:17;7.3;;;6.8;;
64018;SDS011;66942;52.138;5.216;2023-07-08T12:21:57;7.1;;;6.6;;
64018;SDS011;66942;52.138;5.216;2023-07-08T12:25:11;6.8;;;6.4;;
64018;SDS011;66942;52.138;5.216;2023-07-08T12:26:49;7.6;;;7.0;;
64018;SDS011;66942;52.138;5.216;2023-07-08T12:28:25;7.6;;;6.9;;
64018;SDS011;66942;52.138;5.216;2023-07-08T12:30:02;7.0;;;6.5;;
64018;SDS011;66942;52.138;5.216;2023-07-08T12:33:18;7.0;;;6.5;;
64018;SDS011;66942;52.138;5.216;2023-07-08T12:35:04;7.1;;;6.6;;
64018;SDS011;66942;52.138;5.216;2023-07-08T12:36:52;6.9;;;6.4;;
64018;SDS011;66942;52.138;5.216;2023-07-08T12:38:30;6.5;;;6.1;;
64018;SDS011;66942;52.138;5.216;2023-07-08T12:41:47;7.4;;;6.8;;
64018;SDS011;66942;52.138;5.216;2023-07-08T12:43:23;6.4;;;6.0;;
64018;SDS011;66942;52.138;5.216;2023-07-08T12:44:59;6.7;;;6.2;;
64018;SDS011;66942;52.138;5.216;2023-07-08T12:48:11;7.1;;;6.6;;
64018;SDS011;66942;52.138;5.216;2023-07-08T12:49:47;6.9;;;6.5;;
64018;SDS011;66942;52.138;5.216;2023-07-08T12:51:24;7.1;;;6.6;;
64018;SDS011;66942;52.138;5.216;2023-07-08T12:53:03;6.8;;;6.3;;
64018;SDS011;66942;52.138;5.216;2023-07-08T12:56:17;7.4;;;6.6;;
64018;SDS011;66942;52.138;5.216;2023-07-08T12:57:55;7.1;;;6.6;;
64018;SDS011;66942;52.138;5.216;2023-07-08T12:59:31;7.4;;;6.8;;